createdAt,value
2023-03-21T00:00:45.744Z,4.28
2023-03-21T00:03:14.517Z,3.88
2023-03-21T00:05:43.357Z,3.28
2023-03-21T00:08:10.635Z,3.00
2023-03-21T00:10:42.085Z,3.00
2023-03-21T00:13:16.000Z,3.40
2023-03-21T00:16:21.038Z,2.97
2023-03-21T00:18:52.667Z,2.45
2023-03-21T00:24:09.120Z,3.63
2023-03-21T00:26:36.338Z,4.25
2023-03-21T00:29:03.659Z,4.45
2023-03-21T00:31:30.911Z,3.30
2023-03-21T00:33:58.754Z,3.00
2023-03-21T00:36:27.006Z,2.72
2023-03-21T00:38:54.824Z,3.67
2023-03-21T00:41:39.059Z,2.97
2023-03-21T00:44:08.816Z,3.00
2023-03-21T00:46:45.502Z,3.38
2023-03-21T00:49:16.495Z,3.10
2023-03-21T00:51:44.788Z,3.03
2023-03-21T00:54:13.115Z,3.45
2023-03-21T00:56:41.434Z,3.63
2023-03-21T00:59:08.662Z,3.40
2023-03-21T01:01:39.052Z,3.40
2023-03-21T01:07:36.277Z,3.63
2023-03-21T01:14:26.745Z,3.15
2023-03-21T01:16:54.409Z,3.28
2023-03-21T01:19:48.307Z,3.35
2023-03-21T01:22:16.379Z,2.70
2023-03-21T01:24:53.076Z,3.10
2023-03-21T01:31:28.331Z,2.63
2023-03-21T01:33:55.898Z,2.80
2023-03-21T01:36:26.531Z,2.60
2023-03-21T01:43:21.491Z,2.33
2023-03-21T01:46:51.466Z,2.97
2023-03-21T01:50:01.809Z,2.90
2023-03-21T01:56:35.577Z,2.60
2023-03-21T01:59:17.556Z,3.17
2023-03-21T02:06:53.734Z,2.75
2023-03-21T02:09:47.728Z,3.25
2023-03-21T02:12:19.885Z,3.05
2023-03-21T02:14:52.445Z,3.20
2023-03-21T02:17:46.106Z,2.75
2023-03-21T02:20:41.543Z,3.10
2023-03-21T02:23:31.270Z,2.78
2023-03-21T02:26:41.167Z,3.08
2023-03-21T02:29:44.973Z,2.60
2023-03-21T02:32:36.623Z,3.00
2023-03-21T02:35:30.411Z,2.85
2023-03-21T02:38:05.548Z,2.72
2023-03-21T02:40:39.880Z,2.83
2023-03-21T02:43:23.710Z,3.10
2023-03-21T02:46:15.151Z,2.80
2023-03-21T02:48:52.584Z,2.67
2023-03-21T02:51:26.505Z,3.17
2023-03-21T02:54:28.245Z,3.35
2023-03-21T02:56:59.578Z,3.10
2023-03-21T02:59:27.817Z,3.63
2023-03-21T03:01:58.395Z,3.10
2023-03-21T03:04:28.637Z,3.53
2023-03-21T03:06:58.618Z,3.13
2023-03-21T03:09:55.934Z,3.00
2023-03-21T03:12:46.071Z,3.33
2023-03-21T03:15:22.319Z,3.33
2023-03-21T03:17:57.485Z,3.45
2023-03-21T03:20:57.705Z,3.38
2023-03-21T03:23:43.138Z,3.58
2023-03-21T03:26:34.902Z,3.08
2023-03-21T03:29:07.457Z,2.97
2023-03-21T03:31:45.594Z,3.33
2023-03-21T03:34:18.185Z,3.38
2023-03-21T03:36:51.821Z,3.10
2023-03-21T03:39:19.523Z,3.08
2023-03-21T03:42:29.121Z,3.15
2023-03-21T03:44:57.384Z,3.20
2023-03-21T03:47:33.842Z,3.30
2023-03-21T03:50:13.440Z,3.08
2023-03-21T03:52:56.195Z,3.30
2023-03-21T03:55:34.829Z,3.20
2023-03-21T03:58:22.178Z,3.25
2023-03-21T04:00:54.972Z,3.10
2023-03-21T04:03:23.353Z,3.30
2023-03-21T04:05:52.034Z,3.13
2023-03-21T04:08:20.680Z,2.90
2023-03-21T04:10:55.637Z,3.88
2023-03-21T04:13:24.848Z,3.30
2023-03-21T04:16:03.756Z,3.63
2023-03-21T04:18:32.805Z,3.30
2023-03-21T04:21:01.472Z,2.88
2023-03-21T04:23:31.003Z,2.95
2023-03-21T04:25:58.337Z,3.15
2023-03-21T04:28:36.783Z,3.13
2023-03-21T04:31:25.214Z,3.10
2023-03-21T04:34:02.298Z,3.42
2023-03-21T04:36:39.482Z,3.58
2023-03-21T04:39:15.084Z,3.63
2023-03-21T04:41:46.881Z,3.35
2023-03-21T04:44:16.695Z,3.00
2023-03-21T04:46:44.640Z,3.15
2023-03-21T04:49:12.588Z,2.97
2023-03-21T04:51:40.263Z,2.85
2023-03-21T04:56:43.383Z,4.22
2023-03-21T04:59:19.870Z,5.70
2023-03-21T05:01:57.277Z,7.25
2023-03-21T05:04:56.569Z,7.95
2023-03-21T05:07:28.564Z,6.72
2023-03-21T05:09:57.861Z,5.82
2023-03-21T05:12:26.968Z,5.15
2023-03-21T05:15:09.794Z,4.70
2023-03-21T05:17:45.841Z,4.65
2023-03-21T05:20:43.785Z,4.30
2023-03-21T05:23:16.375Z,4.45
2023-03-21T05:25:45.745Z,3.97
2023-03-21T05:28:26.430Z,3.30
2023-03-21T05:30:58.233Z,3.58
2023-03-21T05:33:27.798Z,3.47
2023-03-21T05:35:55.464Z,4.05
2023-03-21T05:38:23.084Z,3.92
2023-03-21T05:40:54.492Z,3.75
2023-03-21T05:43:21.820Z,4.65
2023-03-21T05:45:49.108Z,3.30
2023-03-21T05:48:18.939Z,3.70
2023-03-21T05:51:10.382Z,3.50
2023-03-21T05:53:38.367Z,3.47
2023-03-21T05:56:06.409Z,3.60
2023-03-21T05:58:56.383Z,3.40
2023-03-21T06:01:24.832Z,3.78
2023-03-21T06:04:05.997Z,3.25
2023-03-21T06:06:34.044Z,3.70
2023-03-21T06:09:02.040Z,3.28
2023-03-21T06:11:34.194Z,3.30
2023-03-21T06:14:21.287Z,3.20
2023-03-21T06:17:20.883Z,3.97
2023-03-21T06:19:56.917Z,3.72
2023-03-21T06:22:32.027Z,3.80
2023-03-21T06:25:00.878Z,4.15
2023-03-21T06:27:28.626Z,3.53
2023-03-21T06:30:07.223Z,3.60
2023-03-21T06:32:39.933Z,3.40
2023-03-21T06:35:11.551Z,3.47
2023-03-21T06:37:39.030Z,3.50
2023-03-21T06:40:09.338Z,3.40
2023-03-21T06:42:51.755Z,3.33
2023-03-21T06:45:20.208Z,3.30
2023-03-21T06:47:47.703Z,3.25
2023-03-21T06:50:41.602Z,3.15
2023-03-21T06:53:08.805Z,2.90
2023-03-21T06:55:55.161Z,3.50
2023-03-21T06:58:23.371Z,3.85
2023-03-21T07:00:50.919Z,4.15
2023-03-21T07:03:19.502Z,3.80
2023-03-21T07:05:47.947Z,4.57
2023-03-21T07:08:17.714Z,4.95
2023-03-21T07:10:47.158Z,4.82
2023-03-21T07:13:16.246Z,5.38
2023-03-21T07:15:55.203Z,5.72
2023-03-21T07:18:22.402Z,5.32
2023-03-21T07:20:52.359Z,5.07
2023-03-21T07:23:22.641Z,5.25
2023-03-21T07:25:51.206Z,4.90
2023-03-21T07:28:19.407Z,5.13
2023-03-21T07:30:54.336Z,5.68
2023-03-21T07:33:23.283Z,5.82
2023-03-21T07:35:51.814Z,6.00
2023-03-21T07:38:19.926Z,5.35
2023-03-21T07:40:48.472Z,6.03
2023-03-21T07:43:16.481Z,4.70
2023-03-21T07:45:45.404Z,5.40
2023-03-21T07:48:21.612Z,5.03
2023-03-21T07:50:49.541Z,4.18
2023-03-21T07:53:16.833Z,3.55
2023-03-21T07:55:44.024Z,3.40
2023-03-21T07:58:11.428Z,3.10
2023-03-21T08:00:38.977Z,3.53
2023-03-21T08:03:06.531Z,3.90
2023-03-21T08:05:36.937Z,3.70
2023-03-21T08:08:06.310Z,4.03
2023-03-21T08:10:33.769Z,3.75
2023-03-21T08:13:01.094Z,3.42
2023-03-21T08:15:28.407Z,3.40
2023-03-21T08:17:55.620Z,3.20
2023-03-21T08:20:26.220Z,3.10
2023-03-21T08:22:53.454Z,3.10
2023-03-21T08:25:23.178Z,3.13
2023-03-21T08:27:52.386Z,2.92
2023-03-21T08:30:23.036Z,3.03
2023-03-21T08:32:50.762Z,2.75
2023-03-21T08:35:20.616Z,2.83
2023-03-21T08:39:00.945Z,3.22
2023-03-21T08:41:32.951Z,2.90
2023-03-21T08:44:00.552Z,2.33
2023-03-21T08:46:27.851Z,2.20
2023-03-21T08:48:55.340Z,2.10
2023-03-21T08:51:25.684Z,2.03
2023-03-21T08:53:53.004Z,2.38
2023-03-21T08:56:20.219Z,1.73
2023-03-21T08:58:47.742Z,2.00
2023-03-21T09:01:16.021Z,2.55
2023-03-21T09:03:43.999Z,1.80
2023-03-21T09:06:14.555Z,1.55
2023-03-21T09:08:42.323Z,1.98
2023-03-21T09:11:10.753Z,1.77
2023-03-21T09:13:38.153Z,1.83
2023-03-21T09:16:05.713Z,1.95
2023-03-21T09:18:47.445Z,2.70
2023-03-21T09:21:18.669Z,1.90
2023-03-21T09:23:48.735Z,1.52
2023-03-21T09:26:16.471Z,1.83
2023-03-21T09:28:43.810Z,1.70
2023-03-21T09:31:12.557Z,1.60
2023-03-21T09:33:40.913Z,1.73
2023-03-21T09:36:14.687Z,1.67
2023-03-21T09:38:45.791Z,1.55
2023-03-21T09:41:55.880Z,1.70
2023-03-21T09:44:44.012Z,1.77
2023-03-21T09:47:24.766Z,2.50
2023-03-21T09:50:11.224Z,1.80
2023-03-21T09:52:50.947Z,2.25
2023-03-21T09:55:35.341Z,1.80
2023-03-21T09:58:41.550Z,1.83
2023-03-21T10:01:35.586Z,1.92
2023-03-21T10:04:06.607Z,1.70
2023-03-21T10:06:40.784Z,2.03
2023-03-21T10:09:17.271Z,2.40
2023-03-21T10:12:07.618Z,1.40
2023-03-21T10:14:42.779Z,1.70
2023-03-21T10:17:33.930Z,1.90
2023-03-21T10:20:23.683Z,1.92
2023-03-21T10:22:54.503Z,1.42
2023-03-21T10:25:41.370Z,1.50
2023-03-21T10:28:15.670Z,1.30
2023-03-21T10:31:01.671Z,1.50
2023-03-21T10:33:34.832Z,1.30
2023-03-21T10:36:08.490Z,1.45
2023-03-21T10:38:37.764Z,1.50
2023-03-21T10:41:05.147Z,1.20
2023-03-21T10:43:37.662Z,1.90
2023-03-21T10:46:21.527Z,1.40
2023-03-21T10:48:55.192Z,1.40
2023-03-21T10:51:28.061Z,1.20
2023-03-21T10:54:01.778Z,0.80
2023-03-21T10:56:31.950Z,0.93
2023-03-21T10:59:01.731Z,1.40
2023-03-21T11:01:39.509Z,0.98
2023-03-21T11:04:22.934Z,1.20
2023-03-21T11:07:04.124Z,1.15
2023-03-21T11:09:54.973Z,1.40
2023-03-21T11:12:37.589Z,1.00
2023-03-21T11:15:37.554Z,1.25
2023-03-21T11:18:18.001Z,0.95
2023-03-21T11:20:51.360Z,1.20
2023-03-21T11:23:20.772Z,1.33
2023-03-21T11:25:51.137Z,1.10
2023-03-21T11:28:24.379Z,1.15
2023-03-21T11:33:21.816Z,1.27
2023-03-21T11:36:07.157Z,0.73
2023-03-21T11:38:39.966Z,1.30
2023-03-21T11:41:07.739Z,1.52
2023-03-21T11:43:39.404Z,1.25
2023-03-21T11:46:09.725Z,1.20
2023-03-21T11:48:50.989Z,1.10
2023-03-21T11:51:41.632Z,1.10
2023-03-21T11:54:47.286Z,1.52
2023-03-21T11:57:39.633Z,1.48
2023-03-21T12:00:18.150Z,1.02
2023-03-21T12:03:07.967Z,1.20
2023-03-21T12:05:53.336Z,1.27
2023-03-21T12:08:44.306Z,1.10
2023-03-21T12:11:38.022Z,0.93
2023-03-21T12:16:59.728Z,0.80
2023-03-21T12:19:55.013Z,0.90
2023-03-21T12:22:40.131Z,1.20
2023-03-21T12:25:19.312Z,0.90
2023-03-21T12:28:07.520Z,1.00
2023-03-21T12:30:59.497Z,1.20
2023-03-21T12:33:45.099Z,1.08
2023-03-21T12:36:38.562Z,0.98
2023-03-21T12:39:29.091Z,1.10
2023-03-21T12:42:18.766Z,0.63
2023-03-21T12:45:00.654Z,0.90
2023-03-21T12:47:31.203Z,0.90
2023-03-21T12:50:04.312Z,0.60
2023-03-21T12:52:37.281Z,0.75
2023-03-21T12:55:14.648Z,0.88
2023-03-21T12:57:57.788Z,0.88
2023-03-21T13:00:37.501Z,0.57
2023-03-21T13:03:39.989Z,0.40
2023-03-21T13:06:11.650Z,0.47
2023-03-21T13:08:56.851Z,0.50
2023-03-21T13:11:31.093Z,0.40
2023-03-21T13:14:06.665Z,0.60
2023-03-21T13:17:01.453Z,0.50
2023-03-21T13:19:38.394Z,0.68
2023-03-21T13:22:16.457Z,0.63
2023-03-21T13:24:58.455Z,0.40
2023-03-21T13:27:29.040Z,0.60
2023-03-21T13:30:18.258Z,0.75
2023-03-21T13:32:48.787Z,0.70
2023-03-21T13:35:27.938Z,0.40
2023-03-21T13:38:05.132Z,0.50
2023-03-21T13:40:41.213Z,0.55
2023-03-21T13:43:46.917Z,0.55
2023-03-21T13:46:46.888Z,0.60
2023-03-21T13:49:27.872Z,0.60
2023-03-21T13:52:00.024Z,0.63
2023-03-21T13:54:40.525Z,0.50
2023-03-21T13:57:32.206Z,0.40
2023-03-21T14:00:17.919Z,0.50
2023-03-21T14:03:14.536Z,0.45
2023-03-21T14:05:42.153Z,0.30
2023-03-21T14:08:24.739Z,0.68
2023-03-21T14:11:01.833Z,0.40
2023-03-21T14:13:33.089Z,0.50
2023-03-21T14:18:54.079Z,0.50
2023-03-21T14:21:33.402Z,0.40
2023-03-21T14:24:05.843Z,0.43
2023-03-21T14:26:36.893Z,0.52
2023-03-21T14:29:22.888Z,0.52
2023-03-21T14:31:53.812Z,0.60
2023-03-21T14:34:22.819Z,0.40
2023-03-21T14:36:57.686Z,0.50
2023-03-21T14:39:32.616Z,0.38
2023-03-21T14:42:06.685Z,0.52
2023-03-21T14:44:57.849Z,0.35
2023-03-21T14:47:28.212Z,0.30
2023-03-21T14:49:57.509Z,0.50
2023-03-21T14:52:28.089Z,0.30
2023-03-21T14:54:56.630Z,0.30
2023-03-21T14:57:32.639Z,0.40
2023-03-21T15:00:13.186Z,0.40
2023-03-21T15:02:42.171Z,0.32
2023-03-21T15:05:21.001Z,0.30
2023-03-21T15:08:03.216Z,0.30
2023-03-21T15:10:32.122Z,0.50
2023-03-21T15:13:13.283Z,0.45
2023-03-21T15:15:41.411Z,0.40
2023-03-21T15:18:09.796Z,0.57
2023-03-21T15:20:38.631Z,0.32
2023-03-21T15:23:12.187Z,0.40
2023-03-21T15:25:40.429Z,0.30
2023-03-21T15:28:08.230Z,0.50
2023-03-21T15:30:35.832Z,0.40
2023-03-21T15:33:10.037Z,0.32
2023-03-21T15:35:46.387Z,0.20
2023-03-21T15:38:40.496Z,0.40
2023-03-21T15:41:21.415Z,0.30
2023-03-21T15:43:55.841Z,0.30
2023-03-21T15:46:45.500Z,0.50
2023-03-21T15:49:16.323Z,0.45
2023-03-21T15:51:55.081Z,0.40
2023-03-21T15:54:28.469Z,0.70
2023-03-21T15:57:01.554Z,0.47
2023-03-21T16:01:58.691Z,0.60
2023-03-21T16:04:26.822Z,0.55
2023-03-21T16:07:03.278Z,0.60
2023-03-21T16:09:46.593Z,0.50
2023-03-21T16:12:17.539Z,0.20
2023-03-21T16:14:47.577Z,0.20
2023-03-21T16:17:40.889Z,0.50
2023-03-21T16:23:01.518Z,0.10
2023-03-21T16:25:32.898Z,0.50
2023-03-21T16:28:00.557Z,0.32
2023-03-21T16:30:27.785Z,0.43
2023-03-21T16:32:54.922Z,0.30
2023-03-21T16:35:23.584Z,0.40
2023-03-21T16:37:51.926Z,0.40
2023-03-21T16:40:35.849Z,0.55
2023-03-21T16:43:08.429Z,0.38
2023-03-21T16:45:36.222Z,0.40
2023-03-21T16:48:04.701Z,0.30
2023-03-21T16:50:37.908Z,0.65
2023-03-21T16:53:05.626Z,0.50
2023-03-21T16:55:34.983Z,0.75
2023-03-21T16:58:02.213Z,0.80
2023-03-21T17:00:31.058Z,0.50
2023-03-21T17:03:02.339Z,0.40
2023-03-21T17:05:32.603Z,0.88
2023-03-21T17:08:02.759Z,0.55
2023-03-21T17:10:31.928Z,0.63
2023-03-21T17:13:00.680Z,0.60
2023-03-21T17:15:28.123Z,0.60
2023-03-21T17:17:55.999Z,0.60
2023-03-21T17:20:29.546Z,0.68
2023-03-21T17:22:56.723Z,1.10
2023-03-21T17:25:24.697Z,0.52
2023-03-21T17:27:55.366Z,0.38
2023-03-21T17:30:40.281Z,0.38
2023-03-21T17:33:08.524Z,0.60
2023-03-21T17:35:36.326Z,0.45
2023-03-21T17:38:04.502Z,1.08
2023-03-21T17:40:32.885Z,0.80
2023-03-21T17:43:01.643Z,0.45
2023-03-21T17:45:29.892Z,0.60
2023-03-21T17:47:58.323Z,0.70
2023-03-21T17:50:27.658Z,0.70
2023-03-21T17:52:57.689Z,0.70
2023-03-21T17:55:25.140Z,0.50
2023-03-21T17:57:52.555Z,1.00
2023-03-21T18:00:23.349Z,0.63
2023-03-21T18:02:50.983Z,0.88
2023-03-21T18:05:18.988Z,0.80
2023-03-21T18:08:08.714Z,0.70
2023-03-21T18:10:33.899Z,0.73
2023-03-21T18:13:01.068Z,0.90
2023-03-21T18:15:30.319Z,1.13
2023-03-21T18:17:58.381Z,0.90
2023-03-21T18:20:50.300Z,1.00
2023-03-21T18:23:18.990Z,0.82
2023-03-21T18:25:47.073Z,0.88
2023-03-21T18:28:19.402Z,1.15
2023-03-21T18:33:41.160Z,2.28
2023-03-21T18:36:10.517Z,3.10
2023-03-21T18:38:38.545Z,2.47
2023-03-21T18:41:08.121Z,2.67
2023-03-21T18:46:24.956Z,1.90
2023-03-21T18:48:52.304Z,1.50
2023-03-21T18:51:19.788Z,1.20
2023-03-21T18:53:47.252Z,0.98
2023-03-21T18:56:57.690Z,1.13
2023-03-21T18:59:03.201Z,0.80
2023-03-21T19:01:30.533Z,0.90
2023-03-21T19:06:48.036Z,1.23
2023-03-21T19:09:15.455Z,1.80
2023-03-21T19:11:43.988Z,1.58
2023-03-21T19:14:13.541Z,2.28
2023-03-21T19:17:13.854Z,2.03
2023-03-21T19:19:28.665Z,2.28
2023-03-21T19:21:56.029Z,2.17
2023-03-21T19:24:28.092Z,2.35
2023-03-21T19:26:55.987Z,2.25
2023-03-21T19:29:23.356Z,2.08
2023-03-21T19:31:51.951Z,2.65
2023-03-21T19:34:19.794Z,4.70
2023-03-21T19:36:51.562Z,7.10
2023-03-21T19:39:22.937Z,9.40
2023-03-21T19:41:54.377Z,7.20
2023-03-21T19:44:25.133Z,7.03
2023-03-21T19:46:52.420Z,8.27
2023-03-21T19:49:22.323Z,7.72
2023-03-21T19:51:49.917Z,8.57
2023-03-21T19:54:18.216Z,7.38
2023-03-21T19:56:48.027Z,6.22
2023-03-21T19:59:15.843Z,4.82
2023-03-21T20:01:57.052Z,4.10
2023-03-21T20:04:28.218Z,3.20
2023-03-21T20:06:58.636Z,3.42
2023-03-21T20:09:51.778Z,3.17
2023-03-21T20:12:17.957Z,3.97
2023-03-21T20:14:49.092Z,4.15
2023-03-21T20:17:17.066Z,4.78
2023-03-21T20:19:44.271Z,4.50
2023-03-21T20:22:21.776Z,4.15
2023-03-21T20:24:55.508Z,3.53
2023-03-21T20:27:25.900Z,2.92
2023-03-21T20:30:09.279Z,2.55
2023-03-21T20:32:38.516Z,2.22
2023-03-21T20:35:21.158Z,2.03
2023-03-21T20:37:55.410Z,1.95
2023-03-21T20:40:22.979Z,1.70
2023-03-21T20:42:50.595Z,1.98
2023-03-21T20:45:19.607Z,1.70
2023-03-21T20:47:46.963Z,2.28
2023-03-21T20:50:14.820Z,1.75
2023-03-21T20:53:01.237Z,1.98
2023-03-21T20:55:34.511Z,1.95
2023-03-21T20:58:02.270Z,1.48
2023-03-21T21:00:30.225Z,1.55
2023-03-21T21:02:58.225Z,1.73
2023-03-21T21:05:31.430Z,1.65
2023-03-21T21:08:02.040Z,1.70
2023-03-21T21:10:30.924Z,1.70
2023-03-21T21:12:59.118Z,1.48
2023-03-21T21:15:27.311Z,1.67
2023-03-21T21:18:06.442Z,1.90
2023-03-21T21:20:35.545Z,1.70
2023-03-21T21:23:02.845Z,1.90
2023-03-21T21:25:34.341Z,1.60
2023-03-21T21:28:03.017Z,1.50
2023-03-21T21:30:32.811Z,1.83
2023-03-21T21:33:01.100Z,1.55
2023-03-21T21:35:28.730Z,1.55
2023-03-21T21:37:56.240Z,1.60
2023-03-21T21:40:23.710Z,1.83
2023-03-21T21:42:51.064Z,1.38
2023-03-21T21:45:19.168Z,2.15
2023-03-21T21:47:46.764Z,1.70
2023-03-21T21:50:14.641Z,1.73
2023-03-21T21:52:44.620Z,1.60
2023-03-21T21:55:13.864Z,1.90
2023-03-21T21:57:41.927Z,1.60
2023-03-21T22:00:17.453Z,1.98
2023-03-21T22:02:45.049Z,2.15
2023-03-21T22:05:12.477Z,2.25
2023-03-21T22:07:40.667Z,1.90
2023-03-21T22:10:08.463Z,2.53
2023-03-21T22:12:35.808Z,2.38
2023-03-21T22:15:07.578Z,2.17
2023-03-21T22:17:46.958Z,2.20
2023-03-21T22:20:19.800Z,1.73
2023-03-21T22:22:48.157Z,2.22
2023-03-21T22:25:16.665Z,1.67
2023-03-21T22:27:45.295Z,2.30
2023-03-21T22:30:17.635Z,2.08
2023-03-21T22:32:56.402Z,2.33
2023-03-21T22:35:30.508Z,2.40
2023-03-21T22:37:57.821Z,3.03
2023-03-21T22:40:26.767Z,3.55
2023-03-21T22:42:54.531Z,5.82
2023-03-21T22:45:21.842Z,5.53
2023-03-21T22:47:49.051Z,5.22
2023-03-21T22:50:16.462Z,4.82
2023-03-21T22:52:43.637Z,4.53
2023-03-21T22:55:12.884Z,4.20
2023-03-21T22:57:40.135Z,4.93
2023-03-21T23:00:14.668Z,4.40
2023-03-21T23:02:42.372Z,4.65
2023-03-21T23:05:10.546Z,3.92
2023-03-21T23:07:38.898Z,3.70
2023-03-21T23:10:07.284Z,5.10
2023-03-21T23:12:34.822Z,7.50
2023-03-21T23:15:02.584Z,12.18
2023-03-21T23:17:29.942Z,15.30
2023-03-21T23:19:57.230Z,17.30
2023-03-21T23:22:24.385Z,18.15
2023-03-21T23:24:51.758Z,22.48
2023-03-21T23:27:18.920Z,29.52
2023-03-21T23:29:45.987Z,39.28
2023-03-21T23:32:13.330Z,36.42
2023-03-21T23:34:40.786Z,27.85
2023-03-21T23:37:07.962Z,24.50
2023-03-21T23:39:35.355Z,18.95
2023-03-21T23:42:02.556Z,13.35
2023-03-21T23:44:33.601Z,9.60
2023-03-21T23:47:04.909Z,8.18
2023-03-21T23:49:33.942Z,7.70
2023-03-21T23:52:01.074Z,9.32
2023-03-21T23:54:28.287Z,9.55
2023-03-21T23:56:55.619Z,9.75
2023-03-21T23:59:22.989Z,9.30
